sensor_id;sensor_type;location;lat;lon;timestamp;pressure;altitude;pressure_sealevel;temperature;humidity
40117;BME280;25829;50.228;18.936;2023-02-28T00:00:26;99776.19;;;-0.60;50.01
40117;BME280;25829;50.228;18.936;2023-02-28T00:03:27;99771.22;;;-0.63;50.53
40117;BME280;25829;50.228;18.936;2023-02-28T00:06:28;99771.63;;;-0.56;50.87
40117;BME280;25829;50.228;18.936;2023-02-28T00:09:29;99768.59;;;-0.50;50.50
40117;BME280;25829;50.228;18.936;2023-02-28T00:12:30;99767.69;;;-0.49;50.24
40117;BME280;25829;50.228;18.936;2023-02-28T00:15:31;99767.88;;;-0.52;50.17
40117;BME280;25829;50.228;18.936;2023-02-28T00:18:32;99763.09;;;-0.58;49.17
40117;BME280;25829;50.228;18.936;2023-02-28T00:21:33;99773.06;;;-0.65;50.38
40117;BME280;25829;50.228;18.936;2023-02-28T00:24:34;99777.91;;;-0.60;50.49
40117;BME280;25829;50.228;18.936;2023-02-28T00:27:41;99771.81;;;-0.59;50.27
40117;BME280;25829;50.228;18.936;2023-02-28T00:30:45;99772.66;;;-0.58;50.90
40117;BME280;25829;50.228;18.936;2023-02-28T00:33:49;99775.94;;;-0.56;50.61
40117;BME280;25829;50.228;18.936;2023-02-28T00:36:52;99778.47;;;-0.55;50.86
40117;BME280;25829;50.228;18.936;2023-02-28T00:39:52;99779.47;;;-0.57;50.01
40117;BME280;25829;50.228;18.936;2023-02-28T00:42:53;99782.47;;;-0.64;49.93
40117;BME280;25829;50.228;18.936;2023-02-28T00:45:54;99781.66;;;-0.77;50.75
40117;BME280;25829;50.228;18.936;2023-02-28T01:06:49;99781.34;;;-0.47;52.42
40117;BME280;25829;50.228;18.936;2023-02-28T01:09:50;99793.06;;;-0.41;52.80
40117;BME280;25829;50.228;18.936;2023-02-28T01:12:51;99794.72;;;-0.40;52.64
40117;BME280;25829;50.228;18.936;2023-02-28T01:15:55;99785.09;;;-0.38;52.67
40117;BME280;25829;50.228;18.936;2023-02-28T01:18:56;99782.09;;;-0.45;51.92
40117;BME280;25829;50.228;18.936;2023-02-28T01:22:00;99785.41;;;-0.55;52.19
40117;BME280;25829;50.228;18.936;2023-02-28T01:25:01;99785.00;;;-0.62;51.79
40117;BME280;25829;50.228;18.936;2023-02-28T01:28:02;99778.22;;;-0.77;51.60
40117;BME280;25829;50.228;18.936;2023-02-28T01:31:10;99774.91;;;-0.92;51.55
40117;BME280;25829;50.228;18.936;2023-02-28T01:42:39;99769.50;;;-1.15;53.24
40117;BME280;25829;50.228;18.936;2023-02-28T01:50:49;99766.09;;;-1.02;53.82
40117;BME280;25829;50.228;18.936;2023-02-28T01:54:03;99766.41;;;-1.07;53.41
40117;BME280;25829;50.228;18.936;2023-02-28T01:57:28;99764.94;;;-1.11;53.73
40117;BME280;25829;50.228;18.936;2023-02-28T02:00:38;99765.16;;;-1.14;54.08
40117;BME280;25829;50.228;18.936;2023-02-28T02:03:41;99770.31;;;-1.14;54.58
40117;BME280;25829;50.228;18.936;2023-02-28T02:06:44;99764.72;;;-1.21;54.50
40117;BME280;25829;50.228;18.936;2023-02-28T02:09:46;99762.22;;;-1.22;55.00
40117;BME280;25829;50.228;18.936;2023-02-28T02:22:21;99761.25;;;-1.34;55.99
40117;BME280;25829;50.228;18.936;2023-02-28T02:33:10;99762.47;;;-1.52;57.03
40117;BME280;25829;50.228;18.936;2023-02-28T02:36:38;99758.09;;;-1.52;57.14
40117;BME280;25829;50.228;18.936;2023-02-28T02:47:11;99750.91;;;-1.61;57.28
40117;BME280;25829;50.228;18.936;2023-02-28T02:50:23;99758.88;;;-1.64;57.68
40117;BME280;25829;50.228;18.936;2023-02-28T02:53:34;99754.63;;;-1.65;57.69
40117;BME280;25829;50.228;18.936;2023-02-28T02:56:42;99760.00;;;-1.68;57.71
40117;BME280;25829;50.228;18.936;2023-02-28T02:59:44;99763.78;;;-1.74;57.97
40117;BME280;25829;50.228;18.936;2023-02-28T03:02:49;99760.50;;;-1.76;57.87
40117;BME280;25829;50.228;18.936;2023-02-28T03:05:52;99764.00;;;-1.77;58.26
40117;BME280;25829;50.228;18.936;2023-02-28T03:08:56;99759.75;;;-1.78;58.27
40117;BME280;25829;50.228;18.936;2023-02-28T03:11:57;99766.59;;;-1.77;58.44
40117;BME280;25829;50.228;18.936;2023-02-28T03:15:21;99765.03;;;-1.80;58.85
40117;BME280;25829;50.228;18.936;2023-02-28T03:28:31;99772.91;;;-1.95;59.54
40117;BME280;25829;50.228;18.936;2023-02-28T03:31:44;99767.22;;;-2.00;59.47
40117;BME280;25829;50.228;18.936;2023-02-28T03:35:18;99775.34;;;-2.07;59.24
40117;BME280;25829;50.228;18.936;2023-02-28T03:38:33;99777.56;;;-2.15;59.54
40117;BME280;25829;50.228;18.936;2023-02-28T03:41:41;99773.31;;;-2.16;59.67
40117;BME280;25829;50.228;18.936;2023-02-28T03:44:45;99783.75;;;-2.17;59.89
40117;BME280;25829;50.228;18.936;2023-02-28T03:48:08;99781.16;;;-2.17;60.29
40117;BME280;25829;50.228;18.936;2023-02-28T03:51:16;99781.34;;;-2.20;60.21
40117;BME280;25829;50.228;18.936;2023-02-28T03:54:23;99775.72;;;-2.27;60.02
40117;BME280;25829;50.228;18.936;2023-02-28T03:57:43;99782.00;;;-2.31;60.24
40117;BME280;25829;50.228;18.936;2023-02-28T04:01:09;99786.34;;;-2.46;60.18
40117;BME280;25829;50.228;18.936;2023-02-28T04:04:13;99779.31;;;-2.58;60.30
40117;BME280;25829;50.228;18.936;2023-02-28T04:20:44;99789.47;;;-2.69;61.64
40117;BME280;25829;50.228;18.936;2023-02-28T04:23:45;99791.22;;;-2.70;61.84
40117;BME280;25829;50.228;18.936;2023-02-28T04:26:47;99798.97;;;-2.70;62.05
40117;BME280;25829;50.228;18.936;2023-02-28T04:29:48;99804.31;;;-2.73;62.04
40117;BME280;25829;50.228;18.936;2023-02-28T04:32:52;99811.13;;;-2.72;62.20
40117;BME280;25829;50.228;18.936;2023-02-28T04:36:06;99811.13;;;-2.72;62.25
40117;BME280;25829;50.228;18.936;2023-02-28T04:39:16;99813.00;;;-2.74;62.16
40117;BME280;25829;50.228;18.936;2023-02-28T04:42:21;99819.25;;;-2.78;62.04
40117;BME280;25829;50.228;18.936;2023-02-28T04:45:25;99816.75;;;-2.80;62.17
40117;BME280;25829;50.228;18.936;2023-02-28T04:48:28;99813.53;;;-2.83;62.04
40117;BME280;25829;50.228;18.936;2023-02-28T04:51:30;99819.84;;;-2.89;62.17
40117;BME280;25829;50.228;18.936;2023-02-28T04:54:30;99813.88;;;-2.89;62.64
40117;BME280;25829;50.228;18.936;2023-02-28T04:57:31;99822.44;;;-2.89;62.71
40117;BME280;25829;50.228;18.936;2023-02-28T05:00:32;99822.44;;;-2.89;62.83
40117;BME280;25829;50.228;18.936;2023-02-28T05:03:33;99819.97;;;-2.90;62.49
40117;BME280;25829;50.228;18.936;2023-02-28T05:06:34;99818.72;;;-2.99;62.33
40117;BME280;25829;50.228;18.936;2023-02-28T05:09:38;99811.88;;;-3.14;62.77
40117;BME280;25829;50.228;18.936;2023-02-28T05:12:42;99816.16;;;-3.29;63.09
40117;BME280;25829;50.228;18.936;2023-02-28T05:15:42;99813.16;;;-3.37;63.32
40117;BME280;25829;50.228;18.936;2023-02-28T05:18:47;99824.06;;;-3.32;63.57
40117;BME280;25829;50.228;18.936;2023-02-28T05:21:51;99827.22;;;-3.27;63.72
40117;BME280;25829;50.228;18.936;2023-02-28T05:24:52;99819.94;;;-3.20;63.38
40117;BME280;25829;50.228;18.936;2023-02-28T05:27:53;99819.88;;;-3.19;63.67
40117;BME280;25829;50.228;18.936;2023-02-28T05:30:57;99832.59;;;-3.16;63.83
40117;BME280;25829;50.228;18.936;2023-02-28T05:33:57;99834.34;;;-3.16;64.04
40117;BME280;25829;50.228;18.936;2023-02-28T05:36:58;99839.50;;;-3.16;63.82
40117;BME280;25829;50.228;18.936;2023-02-28T05:40:02;99836.03;;;-3.15;63.70
40117;BME280;25829;50.228;18.936;2023-02-28T05:43:09;99836.09;;;-3.17;63.71
40117;BME280;25829;50.228;18.936;2023-02-28T05:46:16;99838.94;;;-3.22;63.39
40117;BME280;25829;50.228;18.936;2023-02-28T05:49:17;99842.34;;;-3.21;63.71
40117;BME280;25829;50.228;18.936;2023-02-28T05:52:21;99843.13;;;-3.19;63.71
40117;BME280;25829;50.228;18.936;2023-02-28T05:55:22;99853.34;;;-3.17;64.18
40117;BME280;25829;50.228;18.936;2023-02-28T05:58:23;99854.94;;;-3.15;64.01
40117;BME280;25829;50.228;18.936;2023-02-28T06:01:35;99849.81;;;-3.16;63.51
40117;BME280;25829;50.228;18.936;2023-02-28T06:04:37;99852.03;;;-3.25;63.68
40117;BME280;25829;50.228;18.936;2023-02-28T06:07:37;99860.25;;;-3.34;63.86
40117;BME280;25829;50.228;18.936;2023-02-28T06:10:38;99859.59;;;-3.37;64.11
40117;BME280;25829;50.228;18.936;2023-02-28T06:13:39;99867.00;;;-3.31;64.74
40117;BME280;25829;50.228;18.936;2023-02-28T06:16:40;99864.09;;;-3.25;64.74
40117;BME280;25829;50.228;18.936;2023-02-28T06:20:11;99865.41;;;-3.18;64.77
40117;BME280;25829;50.228;18.936;2023-02-28T06:23:47;99882.13;;;-3.09;64.64
40117;BME280;25829;50.228;18.936;2023-02-28T06:26:48;99877.81;;;-3.09;64.39
40117;BME280;25829;50.228;18.936;2023-02-28T06:29:54;99884.31;;;-3.02;64.67
40117;BME280;25829;50.228;18.936;2023-02-28T06:32:58;99880.78;;;-3.01;63.87
40117;BME280;25829;50.228;18.936;2023-02-28T06:36:15;99885.19;;;-3.03;63.97
40117;BME280;25829;50.228;18.936;2023-02-28T06:39:16;99881.63;;;-3.00;64.13
40117;BME280;25829;50.228;18.936;2023-02-28T06:42:17;99877.28;;;-3.00;64.16
40117;BME280;25829;50.228;18.936;2023-02-28T06:45:18;99888.09;;;-2.93;64.07
40117;BME280;25829;50.228;18.936;2023-02-28T06:48:19;99881.44;;;-2.81;64.37
40117;BME280;25829;50.228;18.936;2023-02-28T06:51:20;99878.41;;;-2.73;63.93
40117;BME280;25829;50.228;18.936;2023-02-28T06:54:31;99878.88;;;-2.67;63.77
40117;BME280;25829;50.228;18.936;2023-02-28T06:57:34;99878.59;;;-2.62;63.59
40117;BME280;25829;50.228;18.936;2023-02-28T07:00:35;99885.25;;;-2.58;63.57
40117;BME280;25829;50.228;18.936;2023-02-28T07:03:36;99892.38;;;-2.47;63.89
40117;BME280;25829;50.228;18.936;2023-02-28T07:06:37;99894.16;;;-2.34;63.53
40117;BME280;25829;50.228;18.936;2023-02-28T07:09:37;99904.69;;;-2.22;63.08
40117;BME280;25829;50.228;18.936;2023-02-28T07:12:42;99908.69;;;-2.17;62.49
40117;BME280;25829;50.228;18.936;2023-02-28T07:15:43;99905.63;;;-2.09;62.42
40117;BME280;25829;50.228;18.936;2023-02-28T07:18:44;99901.50;;;-1.97;62.28
40117;BME280;25829;50.228;18.936;2023-02-28T07:21:45;99905.47;;;-1.92;62.09
40117;BME280;25829;50.228;18.936;2023-02-28T07:24:46;99909.53;;;-1.88;61.61
40117;BME280;25829;50.228;18.936;2023-02-28T07:27:47;99905.03;;;-1.84;61.40
40117;BME280;25829;50.228;18.936;2023-02-28T07:30:48;99902.59;;;-1.73;61.79
40117;BME280;25829;50.228;18.936;2023-02-28T07:33:49;99907.19;;;-1.64;61.04
40117;BME280;25829;50.228;18.936;2023-02-28T07:36:53;99903.13;;;-1.53;60.68
40117;BME280;25829;50.228;18.936;2023-02-28T07:39:54;99895.16;;;-1.50;60.56
40117;BME280;25829;50.228;18.936;2023-02-28T07:42:55;99900.09;;;-1.46;59.85
40117;BME280;25829;50.228;18.936;2023-02-28T07:46:21;99899.22;;;-1.46;59.43
40117;BME280;25829;50.228;18.936;2023-02-28T07:49:21;99895.53;;;-1.42;59.44
40117;BME280;25829;50.228;18.936;2023-02-28T07:52:23;99898.84;;;-1.40;59.37
40117;BME280;25829;50.228;18.936;2023-02-28T07:55:24;99902.00;;;-1.35;58.90
40117;BME280;25829;50.228;18.936;2023-02-28T07:58:26;99906.50;;;-1.24;59.37
40117;BME280;25829;50.228;18.936;2023-02-28T08:01:27;99906.94;;;-1.18;58.75
40117;BME280;25829;50.228;18.936;2023-02-28T08:04:31;99904.06;;;-1.13;58.49
40117;BME280;25829;50.228;18.936;2023-02-28T08:07:32;99907.72;;;-1.03;58.47
40117;BME280;25829;50.228;18.936;2023-02-28T08:10:34;99907.84;;;-0.92;57.97
40117;BME280;25829;50.228;18.936;2023-02-28T08:13:34;99904.75;;;-0.84;57.59
40117;BME280;25829;50.228;18.936;2023-02-28T08:16:38;99906.88;;;-0.76;57.71
40117;BME280;25829;50.228;18.936;2023-02-28T08:19:39;99913.13;;;-0.66;56.59
40117;BME280;25829;50.228;18.936;2023-02-28T08:22:39;99912.38;;;-0.68;55.88
40117;BME280;25829;50.228;18.936;2023-02-28T08:25:40;99920.78;;;-0.65;56.23
40117;BME280;25829;50.228;18.936;2023-02-28T08:28:41;99909.28;;;-0.61;56.25
40117;BME280;25829;50.228;18.936;2023-02-28T08:31:42;99913.69;;;-0.48;55.68
40117;BME280;25829;50.228;18.936;2023-02-28T08:34:43;99905.28;;;-0.39;56.19
40117;BME280;25829;50.228;18.936;2023-02-28T08:37:50;99916.63;;;-0.27;55.51
40117;BME280;25829;50.228;18.936;2023-02-28T08:41:06;99916.28;;;-0.23;54.80
40117;BME280;25829;50.228;18.936;2023-02-28T08:44:10;99911.22;;;-0.12;54.92
40117;BME280;25829;50.228;18.936;2023-02-28T08:47:11;99912.88;;;0.02;55.43
40117;BME280;25829;50.228;18.936;2023-02-28T08:50:12;99910.59;;;0.10;54.29
40117;BME280;25829;50.228;18.936;2023-02-28T08:53:15;99912.75;;;0.17;53.71
40117;BME280;25829;50.228;18.936;2023-02-28T08:56:16;99910.81;;;0.20;53.82
40117;BME280;25829;50.228;18.936;2023-02-28T08:59:22;99906.72;;;0.29;53.38
40117;BME280;25829;50.228;18.936;2023-02-28T09:02:27;99917.59;;;0.34;53.16
40117;BME280;25829;50.228;18.936;2023-02-28T09:05:53;99918.97;;;0.40;51.98
40117;BME280;25829;50.228;18.936;2023-02-28T09:09:03;99913.69;;;0.41;52.42
40117;BME280;25829;50.228;18.936;2023-02-28T09:12:12;99918.53;;;0.46;52.10
40117;BME280;25829;50.228;18.936;2023-02-28T09:15:21;99920.09;;;0.48;51.14
40117;BME280;25829;50.228;18.936;2023-02-28T09:18:25;99914.31;;;0.45;50.08
40117;BME280;25829;50.228;18.936;2023-02-28T09:21:27;99917.41;;;0.37;50.03
40117;BME280;25829;50.228;18.936;2023-02-28T09:24:28;99918.25;;;0.38;50.60
40117;BME280;25829;50.228;18.936;2023-02-28T09:27:29;99905.66;;;0.44;51.04
40117;BME280;25829;50.228;18.936;2023-02-28T09:30:30;99909.06;;;0.57;51.31
40117;BME280;25829;50.228;18.936;2023-02-28T09:33:32;99916.31;;;0.65;49.28
40117;BME280;25829;50.228;18.936;2023-02-28T09:36:35;99912.38;;;0.59;49.95
40117;BME280;25829;50.228;18.936;2023-02-28T09:39:37;99921.94;;;0.59;49.89
40117;BME280;25829;50.228;18.936;2023-02-28T09:42:38;99915.25;;;0.68;50.35
40117;BME280;25829;50.228;18.936;2023-02-28T09:45:42;99913.19;;;0.73;49.48
40117;BME280;25829;50.228;18.936;2023-02-28T09:48:45;99913.06;;;0.74;49.92
40117;BME280;25829;50.228;18.936;2023-02-28T09:52:03;99919.28;;;0.72;48.10
40117;BME280;25829;50.228;18.936;2023-02-28T09:58:35;99922.06;;;0.81;48.96
40117;BME280;25829;50.228;18.936;2023-02-28T10:08:10;99923.03;;;1.28;50.47
40117;BME280;25829;50.228;18.936;2023-02-28T10:11:16;99912.19;;;1.81;50.79
40117;BME280;25829;50.228;18.936;2023-02-28T10:17:25;99912.06;;;3.16;48.70
40117;BME280;25829;50.228;18.936;2023-02-28T10:20:28;99905.38;;;3.55;45.55
40117;BME280;25829;50.228;18.936;2023-02-28T10:23:34;99907.28;;;3.95;46.94
40117;BME280;25829;50.228;18.936;2023-02-28T10:26:36;99896.59;;;4.38;46.75
40117;BME280;25829;50.228;18.936;2023-02-28T10:29:44;99899.81;;;4.52;44.08
40117;BME280;25829;50.228;18.936;2023-02-28T10:32:49;99893.38;;;4.15;44.06
40117;BME280;25829;50.228;18.936;2023-02-28T10:35:52;99901.81;;;3.98;44.40
40117;BME280;25829;50.228;18.936;2023-02-28T10:38:52;99900.38;;;3.84;44.76
40117;BME280;25829;50.228;18.936;2023-02-28T10:41:55;99897.44;;;3.78;45.17
40117;BME280;25829;50.228;18.936;2023-02-28T10:45:16;99891.25;;;3.79;44.72
40117;BME280;25829;50.228;18.936;2023-02-28T10:51:18;99885.66;;;3.62;43.59
40117;BME280;25829;50.228;18.936;2023-02-28T10:54:24;99883.00;;;3.53;43.90
40117;BME280;25829;50.228;18.936;2023-02-28T10:57:25;99887.84;;;3.25;44.37
40117;BME280;25829;50.228;18.936;2023-02-28T11:00:32;99874.66;;;3.06;45.67
40117;BME280;25829;50.228;18.936;2023-02-28T11:03:37;99878.56;;;3.00;45.96
40117;BME280;25829;50.228;18.936;2023-02-28T11:06:38;99875.41;;;2.85;45.72
40117;BME280;25829;50.228;18.936;2023-02-28T11:09:40;99873.69;;;2.74;46.05
40117;BME280;25829;50.228;18.936;2023-02-28T11:12:46;99864.72;;;2.56;45.82
40117;BME280;25829;50.228;18.936;2023-02-28T11:15:55;99874.44;;;2.43;45.25
40117;BME280;25829;50.228;18.936;2023-02-28T11:18:57;99857.41;;;2.27;45.88
40117;BME280;25829;50.228;18.936;2023-02-28T11:22:01;99860.03;;;2.16;45.66
40117;BME280;25829;50.228;18.936;2023-02-28T11:25:28;99857.66;;;2.13;45.96
40117;BME280;25829;50.228;18.936;2023-02-28T11:28:36;99849.50;;;2.07;45.78
40117;BME280;25829;50.228;18.936;2023-02-28T11:31:37;99851.28;;;1.95;46.29
40117;BME280;25829;50.228;18.936;2023-02-28T11:34:39;99848.91;;;1.92;46.36
40117;BME280;25829;50.228;18.936;2023-02-28T11:37:41;99849.88;;;1.91;47.03
40117;BME280;25829;50.228;18.936;2023-02-28T11:44:15;99831.53;;;1.81;45.11
40117;BME280;25829;50.228;18.936;2023-02-28T11:47:34;99829.97;;;1.56;45.82
40117;BME280;25829;50.228;18.936;2023-02-28T11:54:25;99816.59;;;1.61;47.89
40117;BME280;25829;50.228;18.936;2023-02-28T12:04:31;99814.00;;;1.61;46.61
40117;BME280;25829;50.228;18.936;2023-02-28T12:08:02;99816.59;;;1.49;46.64
40117;BME280;25829;50.228;18.936;2023-02-28T12:18:09;99808.44;;;1.54;47.22
40117;BME280;25829;50.228;18.936;2023-02-28T12:28:04;99808.19;;;1.46;47.11
40117;BME280;25829;50.228;18.936;2023-02-28T12:31:21;99808.94;;;1.59;47.12
40117;BME280;25829;50.228;18.936;2023-02-28T12:34:39;99814.81;;;1.50;46.58
40117;BME280;25829;50.228;18.936;2023-02-28T12:41:10;99804.09;;;1.66;46.78
40117;BME280;25829;50.228;18.936;2023-02-28T12:44:34;99796.59;;;1.72;46.47
40117;BME280;25829;50.228;18.936;2023-02-28T12:47:36;99793.41;;;1.69;46.40
40117;BME280;25829;50.228;18.936;2023-02-28T12:50:38;99786.47;;;1.69;46.46
40117;BME280;25829;50.228;18.936;2023-02-28T12:54:04;99786.22;;;1.61;45.91
40117;BME280;25829;50.228;18.936;2023-02-28T13:00:29;99783.88;;;1.69;46.99
40117;BME280;25829;50.228;18.936;2023-02-28T13:07:10;99785.50;;;1.82;46.87
40117;BME280;25829;50.228;18.936;2023-02-28T13:10:15;99793.44;;;1.91;46.88
40117;BME280;25829;50.228;18.936;2023-02-28T13:13:25;99786.06;;;1.96;47.05
40117;BME280;25829;50.228;18.936;2023-02-28T13:16:50;99787.63;;;1.88;46.11
40117;BME280;25829;50.228;18.936;2023-02-28T13:22:56;99771.81;;;1.79;47.33
40117;BME280;25829;50.228;18.936;2023-02-28T13:25:58;99776.41;;;1.87;47.36
40117;BME280;25829;50.228;18.936;2023-02-28T13:29:21;99778.03;;;1.99;45.74
40117;BME280;25829;50.228;18.936;2023-02-28T13:32:30;99780.53;;;2.01;46.13
40117;BME280;25829;50.228;18.936;2023-02-28T13:35:38;99772.50;;;2.04;46.63
40117;BME280;25829;50.228;18.936;2023-02-28T13:38:48;99774.00;;;2.07;46.69
40117;BME280;25829;50.228;18.936;2023-02-28T13:41:49;99771.41;;;2.07;46.29
40117;BME280;25829;50.228;18.936;2023-02-28T13:48:19;99769.16;;;2.02;46.75
40117;BME280;25829;50.228;18.936;2023-02-28T13:51:40;99772.69;;;2.12;46.54
40117;BME280;25829;50.228;18.936;2023-02-28T14:05:24;99763.50;;;1.86;46.25
40117;BME280;25829;50.228;18.936;2023-02-28T14:27:03;99741.97;;;1.72;46.54
40117;BME280;25829;50.228;18.936;2023-02-28T14:37:14;99742.34;;;1.90;47.16
40117;BME280;25829;50.228;18.936;2023-02-28T14:40:33;99731.94;;;1.90;46.75
40117;BME280;25829;50.228;18.936;2023-02-28T14:43:34;99724.94;;;1.91;48.01
40117;BME280;25829;50.228;18.936;2023-02-28T14:46:39;99724.09;;;2.01;47.90
40117;BME280;25829;50.228;18.936;2023-02-28T14:49:44;99727.97;;;2.07;47.72
40117;BME280;25829;50.228;18.936;2023-02-28T14:52:52;99727.28;;;2.05;47.05
40117;BME280;25829;50.228;18.936;2023-02-28T14:55:53;99730.31;;;2.10;47.70
40117;BME280;25829;50.228;18.936;2023-02-28T14:58:55;99729.84;;;2.16;47.59
40117;BME280;25829;50.228;18.936;2023-02-28T15:02:16;99732.81;;;2.12;46.75
40117;BME280;25829;50.228;18.936;2023-02-28T15:05:32;99734.25;;;1.93;46.38
40117;BME280;25829;50.228;18.936;2023-02-28T15:08:33;99725.66;;;1.82;47.00
40117;BME280;25829;50.228;18.936;2023-02-28T15:11:37;99733.47;;;1.82;47.47
40117;BME280;25829;50.228;18.936;2023-02-28T15:14:51;99725.41;;;1.85;47.88
40117;BME280;25829;50.228;18.936;2023-02-28T15:17:57;99727.88;;;1.86;47.77
40117;BME280;25829;50.228;18.936;2023-02-28T15:21:03;99732.50;;;1.94;47.76
40117;BME280;25829;50.228;18.936;2023-02-28T15:24:47;99736.28;;;1.90;47.57
40117;BME280;25829;50.228;18.936;2023-02-28T15:27:55;99727.81;;;1.76;47.65
40117;BME280;25829;50.228;18.936;2023-02-28T15:31:02;99724.25;;;1.77;47.89
40117;BME280;25829;50.228;18.936;2023-02-28T15:34:04;99730.75;;;1.83;47.42
40117;BME280;25829;50.228;18.936;2023-02-28T15:37:26;99725.88;;;1.78;47.36
40117;BME280;25829;50.228;18.936;2023-02-28T15:40:51;99729.44;;;1.77;47.50
40117;BME280;25829;50.228;18.936;2023-02-28T15:44:29;99735.59;;;1.76;47.29
40117;BME280;25829;50.228;18.936;2023-02-28T15:47:33;99733.47;;;1.70;47.98
40117;BME280;25829;50.228;18.936;2023-02-28T15:50:34;99730.38;;;1.65;47.23
40117;BME280;25829;50.228;18.936;2023-02-28T15:53:45;99733.59;;;1.58;48.01
40117;BME280;25829;50.228;18.936;2023-02-28T15:56:52;99732.31;;;1.52;47.00
40117;BME280;25829;50.228;18.936;2023-02-28T16:00:03;99732.88;;;1.44;48.22
40117;BME280;25829;50.228;18.936;2023-02-28T16:03:39;99730.88;;;1.48;47.55
40117;BME280;25829;50.228;18.936;2023-02-28T16:10:00;99731.47;;;1.40;48.54
40117;BME280;25829;50.228;18.936;2023-02-28T16:13:02;99729.91;;;1.38;48.26
40117;BME280;25829;50.228;18.936;2023-02-28T16:16:03;99732.78;;;1.35;48.22
40117;BME280;25829;50.228;18.936;2023-02-28T16:19:04;99731.56;;;1.27;48.48
40117;BME280;25829;50.228;18.936;2023-02-28T16:22:05;99737.47;;;1.18;48.33
40117;BME280;25829;50.228;18.936;2023-02-28T16:25:05;99742.66;;;1.07;48.64
40117;BME280;25829;50.228;18.936;2023-02-28T16:28:15;99736.28;;;1.00;49.46
40117;BME280;25829;50.228;18.936;2023-02-28T16:31:21;99732.44;;;0.93;49.12
40117;BME280;25829;50.228;18.936;2023-02-28T16:34:22;99735.75;;;0.83;49.07
40117;BME280;25829;50.228;18.936;2023-02-28T16:37:23;99745.63;;;0.78;49.70
40117;BME280;25829;50.228;18.936;2023-02-28T16:40:26;99746.94;;;0.73;49.38
40117;BME280;25829;50.228;18.936;2023-02-28T16:43:29;99757.56;;;0.70;49.58
40117;BME280;25829;50.228;18.936;2023-02-28T16:46:33;99760.84;;;0.72;50.36
40117;BME280;25829;50.228;18.936;2023-02-28T16:49:34;99758.50;;;0.69;50.37
40117;BME280;25829;50.228;18.936;2023-02-28T16:52:35;99761.78;;;0.71;50.56
40117;BME280;25829;50.228;18.936;2023-02-28T16:55:35;99764.28;;;0.72;50.35
40117;BME280;25829;50.228;18.936;2023-02-28T16:58:40;99766.03;;;0.72;50.02
40117;BME280;25829;50.228;18.936;2023-02-28T17:01:40;99770.75;;;0.67;50.57
40117;BME280;25829;50.228;18.936;2023-02-28T17:04:41;99764.75;;;0.66;50.88
40117;BME280;25829;50.228;18.936;2023-02-28T17:07:42;99771.72;;;0.66;51.24
40117;BME280;25829;50.228;18.936;2023-02-28T17:10:43;99769.31;;;0.63;51.30
40117;BME280;25829;50.228;18.936;2023-02-28T17:13:45;99780.75;;;0.60;51.48
40117;BME280;25829;50.228;18.936;2023-02-28T17:16:46;99784.75;;;0.53;51.64
40117;BME280;25829;50.228;18.936;2023-02-28T17:19:47;99781.75;;;0.46;51.74
40117;BME280;25829;50.228;18.936;2023-02-28T17:22:52;99787.38;;;0.40;52.25
40117;BME280;25829;50.228;18.936;2023-02-28T17:26:15;99788.34;;;0.39;52.46
40117;BME280;25829;50.228;18.936;2023-02-28T17:29:20;99778.38;;;0.33;52.52
40117;BME280;25829;50.228;18.936;2023-02-28T17:32:21;99784.13;;;0.25;52.02
40117;BME280;25829;50.228;18.936;2023-02-28T17:35:22;99782.06;;;0.18;52.61
40117;BME280;25829;50.228;18.936;2023-02-28T17:38:23;99789.34;;;0.12;52.32
40117;BME280;25829;50.228;18.936;2023-02-28T17:41:24;99796.03;;;0.04;52.93
40117;BME280;25829;50.228;18.936;2023-02-28T17:44:26;99781.81;;;-0.03;52.78
40117;BME280;25829;50.228;18.936;2023-02-28T17:47:27;99777.19;;;-0.11;53.04
40117;BME280;25829;50.228;18.936;2023-02-28T17:50:28;99785.47;;;-0.19;53.10
40117;BME280;25829;50.228;18.936;2023-02-28T17:53:29;99786.13;;;-0.28;53.50
40117;BME280;25829;50.228;18.936;2023-02-28T17:56:29;99789.00;;;-0.32;53.87
40117;BME280;25829;50.228;18.936;2023-02-28T17:59:30;99794.63;;;-0.39;54.08
40117;BME280;25829;50.228;18.936;2023-02-28T18:02:33;99787.06;;;-0.42;54.67
40117;BME280;25829;50.228;18.936;2023-02-28T18:05:34;99788.28;;;-0.47;54.48
40117;BME280;25829;50.228;18.936;2023-02-28T18:08:36;99791.09;;;-0.50;54.60
40117;BME280;25829;50.228;18.936;2023-02-28T18:11:37;99793.19;;;-0.55;55.06
40117;BME280;25829;50.228;18.936;2023-02-28T18:14:48;99790.88;;;-0.60;54.85
40117;BME280;25829;50.228;18.936;2023-02-28T18:17:49;99789.63;;;-0.67;55.43
40117;BME280;25829;50.228;18.936;2023-02-28T18:20:50;99791.59;;;-0.71;55.63
40117;BME280;25829;50.228;18.936;2023-02-28T18:23:56;99796.09;;;-0.73;55.94
40117;BME280;25829;50.228;18.936;2023-02-28T18:27:00;99790.34;;;-0.78;55.84
40117;BME280;25829;50.228;18.936;2023-02-28T18:30:35;99792.94;;;-0.78;56.21
40117;BME280;25829;50.228;18.936;2023-02-28T18:33:36;99788.16;;;-0.84;56.68
40117;BME280;25829;50.228;18.936;2023-02-28T18:37:09;99786.72;;;-0.88;56.51
40117;BME280;25829;50.228;18.936;2023-02-28T18:40:11;99788.59;;;-0.90;56.56
40117;BME280;25829;50.228;18.936;2023-02-28T18:43:14;99785.47;;;-0.95;56.39
40117;BME280;25829;50.228;18.936;2023-02-28T18:46:16;99789.19;;;-0.99;57.28
40117;BME280;25829;50.228;18.936;2023-02-28T18:49:18;99788.69;;;-1.04;56.98
40117;BME280;25829;50.228;18.936;2023-02-28T18:52:19;99797.47;;;-1.07;57.24
40117;BME280;25829;50.228;18.936;2023-02-28T18:55:20;99791.56;;;-1.09;57.26
40117;BME280;25829;50.228;18.936;2023-02-28T18:58:22;99785.75;;;-1.13;57.31
40117;BME280;25829;50.228;18.936;2023-02-28T19:01:27;99788.53;;;-1.16;57.60
40117;BME280;25829;50.228;18.936;2023-02-28T19:04:30;99785.22;;;-1.18;57.85
40117;BME280;25829;50.228;18.936;2023-02-28T19:07:31;99781.19;;;-1.22;57.92
40117;BME280;25829;50.228;18.936;2023-02-28T19:10:32;99776.28;;;-1.26;57.99
40117;BME280;25829;50.228;18.936;2023-02-28T19:13:32;99783.22;;;-1.27;58.32
40117;BME280;25829;50.228;18.936;2023-02-28T19:16:33;99780.63;;;-1.27;58.35